createdAt,value
2022-12-19T00:01:33.629Z,-19.61
2022-12-19T00:04:38.221Z,-19.31
2022-12-19T00:07:42.979Z,-19.41
2022-12-19T00:10:57.672Z,-18.96
2022-12-19T00:14:02.378Z,-18.92
2022-12-19T00:17:06.762Z,-18.79
2022-12-19T00:20:11.921Z,-18.61
2022-12-19T00:23:19.085Z,-18.50
2022-12-19T00:26:28.882Z,-18.44
2022-12-19T00:29:33.598Z,-18.20
2022-12-19T00:32:38.613Z,-18.66
2022-12-19T00:35:43.133Z,-18.26
2022-12-19T00:38:49.311Z,-18.12
2022-12-19T00:41:53.733Z,-17.92
2022-12-19T00:44:59.769Z,-17.93
2022-12-19T00:48:04.108Z,-18.01
2022-12-19T00:51:20.033Z,-17.70
2022-12-19T00:54:24.980Z,-17.72
2022-12-19T00:57:30.189Z,-17.77
2022-12-19T01:00:34.615Z,-17.69
2022-12-19T01:03:39.205Z,-16.98
2022-12-19T01:06:43.722Z,-16.65
2022-12-19T01:09:49.704Z,-17.03
2022-12-19T01:12:55.663Z,-16.51
2022-12-19T01:16:08.861Z,-16.31
2022-12-19T01:19:13.170Z,-16.10
2022-12-19T01:22:17.748Z,-16.13
2022-12-19T01:25:23.682Z,-15.94
2022-12-19T01:28:28.434Z,-15.89
2022-12-19T01:31:34.086Z,-15.74
2022-12-19T01:34:40.214Z,-15.76
2022-12-19T01:37:44.657Z,-15.79
2022-12-19T01:40:55.252Z,-15.77
2022-12-19T01:44:02.566Z,-15.53
2022-12-19T01:47:15.555Z,-15.61
2022-12-19T01:50:57.297Z,-15.95
2022-12-19T01:54:09.934Z,-15.55
2022-12-19T01:57:17.619Z,-15.40
2022-12-19T02:00:22.800Z,-15.21
2022-12-19T02:03:33.555Z,-14.93
2022-12-19T02:06:40.426Z,-15.00
2022-12-19T02:09:50.572Z,-14.83
2022-12-19T02:13:10.023Z,-14.46
2022-12-19T02:16:34.884Z,-13.98
2022-12-19T02:20:08.795Z,-14.34
2022-12-19T02:23:50.606Z,-14.93
2022-12-19T02:27:25.229Z,-15.39
2022-12-19T02:30:38.821Z,-15.02
2022-12-19T02:33:49.235Z,-15.24
2022-12-19T02:37:11.846Z,-16.01
2022-12-19T02:40:34.961Z,-15.45
2022-12-19T02:43:46.136Z,-15.08
2022-12-19T02:46:54.569Z,-14.80
2022-12-19T02:50:04.071Z,-15.32
2022-12-19T02:53:12.003Z,-14.92
2022-12-19T02:56:16.600Z,-15.53
2022-12-19T02:59:53.783Z,-15.25
2022-12-19T03:03:06.217Z,-15.06
2022-12-19T03:06:27.469Z,-15.28
2022-12-19T03:09:35.079Z,-15.92
2022-12-19T03:12:55.115Z,-14.90
2022-12-19T03:16:02.807Z,-15.18
2022-12-19T03:19:11.909Z,-14.74
2022-12-19T03:22:16.558Z,-14.55
2022-12-19T03:25:24.102Z,-15.17
2022-12-19T03:28:37.960Z,-14.79
2022-12-19T03:31:44.327Z,-15.06
2022-12-19T03:35:18.233Z,-14.57
2022-12-19T03:38:24.381Z,-15.09
2022-12-19T03:41:47.487Z,-14.64
2022-12-19T03:44:54.572Z,-15.42
2022-12-19T03:48:05.137Z,-15.69
2022-12-19T03:51:31.319Z,-15.35
2022-12-19T03:54:43.357Z,-15.21
2022-12-19T03:58:07.010Z,-14.99
2022-12-19T04:01:12.066Z,-14.14
2022-12-19T04:04:18.133Z,-14.60
2022-12-19T04:07:23.905Z,-15.01
2022-12-19T04:10:30.239Z,-14.76
2022-12-19T04:13:40.074Z,-14.91
2022-12-19T04:16:56.892Z,-15.01
2022-12-19T04:20:08.692Z,-14.91
2022-12-19T04:23:26.479Z,-15.43
2022-12-19T04:26:32.782Z,-15.61
2022-12-19T04:29:39.893Z,-15.03
2022-12-19T04:32:47.331Z,-15.18
2022-12-19T04:35:52.263Z,-14.63
2022-12-19T04:38:56.597Z,-14.73
2022-12-19T04:42:01.395Z,-14.06
2022-12-19T04:45:07.197Z,-13.84
2022-12-19T04:48:12.060Z,-14.54
2022-12-19T04:51:17.506Z,-14.75
2022-12-19T04:54:21.628Z,-15.47
2022-12-19T04:57:26.231Z,-14.77
2022-12-19T05:00:30.654Z,-15.04
2022-12-19T05:03:36.045Z,-15.40
2022-12-19T05:06:40.288Z,-15.77
2022-12-19T05:09:45.060Z,-16.04
2022-12-19T05:12:49.383Z,-16.01
2022-12-19T05:16:01.246Z,-15.85
2022-12-19T05:19:05.885Z,-15.48
2022-12-19T05:22:10.338Z,-15.74
2022-12-19T05:25:14.857Z,-15.68
2022-12-19T05:28:20.064Z,-16.10
2022-12-19T05:31:24.667Z,-15.85
2022-12-19T05:34:29.154Z,-15.52
2022-12-19T05:37:34.243Z,-15.71
2022-12-19T05:40:38.879Z,-16.23
2022-12-19T05:43:50.558Z,-16.15
2022-12-19T05:46:55.188Z,-15.91
2022-12-19T05:49:59.580Z,-15.50
2022-12-19T05:53:04.163Z,-15.82
2022-12-19T05:56:16.631Z,-15.93
2022-12-19T05:59:21.092Z,-16.53
2022-12-19T06:02:26.149Z,-16.72
2022-12-19T06:05:33.258Z,-16.30
2022-12-19T06:08:37.841Z,-16.22
2022-12-19T06:11:43.342Z,-16.33
2022-12-19T06:14:47.934Z,-16.15
2022-12-19T06:17:57.620Z,-16.68
2022-12-19T06:21:05.415Z,-16.37
2022-12-19T06:24:10.044Z,-16.48
2022-12-19T06:27:14.662Z,-16.69
2022-12-19T06:30:21.730Z,-16.84
2022-12-19T06:33:27.031Z,-16.70
2022-12-19T06:36:32.047Z,-16.78
2022-12-19T06:39:36.896Z,-17.05
2022-12-19T06:42:41.520Z,-17.23
2022-12-19T06:45:45.938Z,-17.23
2022-12-19T06:48:50.735Z,-16.96
2022-12-19T06:51:55.202Z,-17.23
2022-12-19T06:54:59.761Z,-17.06
2022-12-19T06:58:04.531Z,-17.38
2022-12-19T07:01:09.529Z,-17.43
2022-12-19T07:04:17.412Z,-17.40
2022-12-19T07:07:22.182Z,-17.54
2022-12-19T07:10:29.393Z,-17.60
2022-12-19T07:13:35.101Z,-17.78
2022-12-19T07:16:39.980Z,-17.96
2022-12-19T07:19:45.964Z,-17.94
2022-12-19T07:22:50.857Z,-17.98
2022-12-19T07:25:55.852Z,-18.04
2022-12-19T07:29:01.601Z,-18.13
2022-12-19T07:32:06.128Z,-18.17
2022-12-19T07:35:11.442Z,-18.29
2022-12-19T07:38:15.898Z,-18.27
2022-12-19T07:41:20.342Z,-18.48
2022-12-19T07:44:24.679Z,-18.74
2022-12-19T07:47:29.453Z,-18.57
2022-12-19T07:50:34.491Z,-18.74
2022-12-19T07:53:39.223Z,-18.58
2022-12-19T07:56:44.062Z,-18.88
2022-12-19T07:59:48.716Z,-18.55
2022-12-19T08:02:53.632Z,-18.87
2022-12-19T08:06:03.025Z,-18.94
2022-12-19T08:09:07.770Z,-18.75
2022-12-19T08:12:12.100Z,-18.88
2022-12-19T08:15:16.897Z,-18.93
2022-12-19T08:18:21.330Z,-19.51
2022-12-19T08:21:26.259Z,-19.10
2022-12-19T08:24:31.737Z,-19.01
2022-12-19T08:27:36.447Z,-19.05
2022-12-19T08:30:42.301Z,-19.59
2022-12-19T08:33:48.391Z,-20.06
2022-12-19T08:36:52.902Z,-19.96
2022-12-19T08:39:57.263Z,-19.52
2022-12-19T08:43:01.907Z,-19.41
2022-12-19T08:46:07.713Z,-20.22
2022-12-19T08:49:12.265Z,-20.29
2022-12-19T08:52:18.852Z,-20.66
2022-12-19T08:55:23.245Z,-20.16
2022-12-19T08:58:29.617Z,-20.04
2022-12-19T09:01:34.301Z,-20.02
2022-12-19T09:05:50.861Z,-20.04
2022-12-19T09:08:03.527Z,-19.92
2022-12-19T09:11:17.264Z,-20.35
2022-12-19T09:14:22.778Z,-20.55
2022-12-19T09:17:27.262Z,-20.73
2022-12-19T09:20:32.091Z,-20.23
2022-12-19T09:23:37.394Z,-20.33
2022-12-19T09:26:43.057Z,-20.21
2022-12-19T09:29:47.878Z,-20.09
2022-12-19T09:32:52.584Z,-20.78
2022-12-19T09:35:58.056Z,-21.15
2022-12-19T09:39:02.839Z,-21.27
2022-12-19T09:42:25.464Z,-20.97
2022-12-19T09:45:39.871Z,-21.01
2022-12-19T09:48:52.496Z,-20.99
2022-12-19T09:52:26.989Z,-21.24
2022-12-19T09:55:40.892Z,-21.85
2022-12-19T09:59:03.263Z,-22.09
2022-12-19T10:02:26.042Z,-22.03
2022-12-19T10:07:07.740Z,-22.01
2022-12-19T10:11:06.461Z,-22.09
2022-12-19T10:13:34.470Z,-21.89
2022-12-19T10:17:23.050Z,-22.20
2022-12-19T10:20:28.501Z,-22.42
2022-12-19T10:23:57.665Z,-22.35
2022-12-19T10:27:07.963Z,-22.15
2022-12-19T10:30:21.935Z,-22.19
2022-12-19T10:33:36.552Z,-22.10
2022-12-19T10:40:28.437Z,-22.60
2022-12-19T10:43:56.592Z,-22.81
2022-12-19T10:47:01.378Z,-22.73
2022-12-19T10:50:15.786Z,-22.43
2022-12-19T10:53:29.929Z,-22.50
2022-12-19T10:56:37.693Z,-22.37
2022-12-19T11:00:02.537Z,-22.77
2022-12-19T11:03:18.998Z,-22.51
2022-12-19T11:06:36.303Z,-22.55
2022-12-19T11:09:49.619Z,-22.57
2022-12-19T11:18:57.068Z,-23.17
2022-12-19T11:23:40.995Z,-23.34
2022-12-19T11:29:47.127Z,-23.60
2022-12-19T11:29:54.222Z,-23.48
2022-12-19T11:30:41.131Z,-23.55
2022-12-19T11:34:52.413Z,-23.73
2022-12-19T11:38:01.582Z,-23.54
2022-12-19T11:41:40.150Z,-23.34
2022-12-19T11:45:17.410Z,-23.07
2022-12-19T11:48:26.071Z,-23.62
2022-12-19T11:51:36.287Z,-23.60
2022-12-19T11:55:06.948Z,-23.69
2022-12-19T11:58:12.758Z,-23.43
2022-12-19T12:01:26.188Z,-23.86
2022-12-19T12:05:14.461Z,-23.56
2022-12-19T12:12:39.388Z,-23.88
2022-12-19T12:20:29.559Z,-24.19
2022-12-19T12:25:57.835Z,-24.25
2022-12-19T12:31:06.910Z,-24.09
2022-12-19T12:31:44.721Z,-24.11
2022-12-19T12:31:49.684Z,-24.03
2022-12-19T12:38:40.021Z,-24.03
2022-12-19T12:42:18.345Z,-23.81
2022-12-19T12:45:37.441Z,-24.40
2022-12-19T12:49:09.393Z,-24.27
2022-12-19T12:52:38.113Z,-24.37
2022-12-19T12:55:44.249Z,-24.58
2022-12-19T12:58:50.107Z,-24.53
2022-12-19T13:02:14.741Z,-24.36
2022-12-19T13:05:39.659Z,-24.53
2022-12-19T13:08:49.025Z,-24.74
2022-12-19T13:12:23.714Z,-24.74
2022-12-19T13:15:28.277Z,-24.82
2022-12-19T13:18:38.673Z,-24.94
2022-12-19T13:22:08.826Z,-24.81
2022-12-19T13:25:37.495Z,-24.89
2022-12-19T13:28:43.611Z,-25.15
2022-12-19T13:32:11.673Z,-24.87
2022-12-19T13:37:32.422Z,-24.71
2022-12-19T13:40:01.315Z,-24.74
2022-12-19T13:42:46.482Z,-24.40
2022-12-19T13:45:58.645Z,-24.59
2022-12-19T13:49:35.161Z,-24.67
2022-12-19T13:52:40.719Z,-25.22
2022-12-19T13:55:45.478Z,-25.17
2022-12-19T13:58:51.808Z,-25.61
2022-12-19T14:01:57.506Z,-25.73
2022-12-19T14:05:02.915Z,-25.44
2022-12-19T14:08:09.138Z,-25.61
2022-12-19T14:11:45.230Z,-25.36
2022-12-19T14:15:13.081Z,-25.20
2022-12-19T14:18:42.473Z,-25.02
2022-12-19T14:22:10.740Z,-25.24
2022-12-19T14:27:57.495Z,-25.38
2022-12-19T14:28:54.541Z,-25.27
2022-12-19T14:33:41.968Z,-25.13
2022-12-19T14:36:10.646Z,-25.38
2022-12-19T14:39:22.943Z,-25.85
2022-12-19T14:43:57.212Z,-25.43
2022-12-19T14:53:08.569Z,-25.67
2022-12-19T14:54:11.035Z,-25.49
2022-12-19T14:54:29.754Z,-25.54
2022-12-19T14:56:59.928Z,-25.64
2022-12-19T15:01:08.310Z,-25.76
2022-12-19T15:04:52.576Z,-25.68
2022-12-19T15:07:34.863Z,-25.79
2022-12-19T15:11:02.548Z,-26.10
2022-12-19T15:14:54.059Z,-25.77
2022-12-19T15:17:30.801Z,-25.41
2022-12-19T15:20:34.865Z,-25.52
2022-12-19T15:23:39.736Z,-25.79
2022-12-19T15:26:55.628Z,-25.68
2022-12-19T15:30:00.400Z,-25.39
2022-12-19T15:33:06.403Z,-25.48
2022-12-19T15:36:11.581Z,-25.65
2022-12-19T15:39:16.339Z,-25.40
2022-12-19T15:42:26.101Z,-25.31
2022-12-19T15:45:32.991Z,-25.90
2022-12-19T15:48:41.744Z,-26.18
2022-12-19T15:51:47.062Z,-25.95
2022-12-19T15:54:51.762Z,-26.38
2022-12-19T15:58:06.743Z,-26.18
2022-12-19T16:01:13.426Z,-26.00
2022-12-19T16:04:18.781Z,-26.36
2022-12-19T16:07:26.341Z,-26.23
2022-12-19T16:10:31.074Z,-26.27
2022-12-19T16:13:36.559Z,-26.22
2022-12-19T16:16:41.651Z,-26.28
2022-12-19T16:19:46.095Z,-26.20
2022-12-19T16:22:51.163Z,-26.26
2022-12-19T16:25:56.469Z,-26.30
2022-12-19T16:29:01.387Z,-26.47
2022-12-19T16:32:06.737Z,-26.29
2022-12-19T16:35:40.403Z,-26.39
2022-12-19T16:38:47.774Z,-26.84
2022-12-19T16:41:52.789Z,-27.11
2022-12-19T16:44:57.628Z,-26.81
2022-12-19T16:48:02.352Z,-26.74
2022-12-19T16:51:07.596Z,-26.99
2022-12-19T16:54:14.057Z,-26.95
2022-12-19T16:57:22.850Z,-26.66
2022-12-19T17:00:27.384Z,-26.71
2022-12-19T17:03:42.401Z,-26.87
2022-12-19T17:06:47.138Z,-26.91
2022-12-19T17:09:51.572Z,-26.55
2022-12-19T17:12:56.775Z,-26.71
2022-12-19T17:16:01.412Z,-26.44
2022-12-19T17:19:06.131Z,-26.52
2022-12-19T17:22:16.181Z,-26.88
2022-12-19T17:25:24.626Z,-26.62
2022-12-19T17:28:30.490Z,-26.69
2022-12-19T17:31:38.974Z,-26.70
2022-12-19T17:34:44.514Z,-26.83
2022-12-19T17:37:57.071Z,-26.70
2022-12-19T17:41:01.406Z,-26.59
2022-12-19T17:44:06.238Z,-26.52
2022-12-19T17:47:19.841Z,-27.06
2022-12-19T17:50:27.747Z,-27.23
2022-12-19T17:53:32.341Z,-27.35
2022-12-19T17:56:36.794Z,-27.01
2022-12-19T17:59:42.852Z,-27.05
2022-12-19T18:02:49.495Z,-26.93
2022-12-19T18:05:56.019Z,-26.83
2022-12-19T18:09:03.468Z,-26.96
2022-12-19T18:12:08.072Z,-27.10
2022-12-19T18:15:12.879Z,-26.81
2022-12-19T18:18:23.972Z,-26.73
2022-12-19T18:21:28.405Z,-27.12
2022-12-19T18:24:32.430Z,-26.72
2022-12-19T18:27:37.856Z,-26.78
2022-12-19T18:30:44.221Z,-26.98
2022-12-19T18:33:49.871Z,-26.86
2022-12-19T18:36:54.987Z,-27.63
2022-12-19T18:39:59.464Z,-27.13
2022-12-19T18:43:03.508Z,-27.34
2022-12-19T18:46:08.573Z,-26.92
2022-12-19T18:49:17.677Z,-27.22
2022-12-19T18:52:21.988Z,-27.32
2022-12-19T18:55:27.578Z,-27.42
2022-12-19T18:58:32.158Z,-27.29
2022-12-19T19:01:48.234Z,-27.25
2022-12-19T19:04:53.014Z,-27.10
2022-12-19T19:07:58.876Z,-27.31
2022-12-19T19:11:03.920Z,-27.31
2022-12-19T19:14:08.558Z,-26.86
2022-12-19T19:17:29.490Z,-26.95
2022-12-19T19:20:40.589Z,-26.93
2022-12-19T19:23:50.393Z,-27.25
2022-12-19T19:26:55.048Z,-27.18
2022-12-19T19:29:59.594Z,-27.34
2022-12-19T19:33:17.494Z,-27.44
2022-12-19T19:36:28.932Z,-27.77
2022-12-19T19:39:35.365Z,-27.88
2022-12-19T19:42:39.921Z,-27.75
2022-12-19T19:45:44.663Z,-27.78
2022-12-19T19:48:49.133Z,-27.84
2022-12-19T19:51:58.659Z,-27.58
2022-12-19T19:55:08.429Z,-27.70
2022-12-19T19:58:12.871Z,-27.53
2022-12-19T20:01:17.555Z,-27.50
2022-12-19T20:04:22.253Z,-27.38
2022-12-19T20:07:26.819Z,-27.33
2022-12-19T20:10:31.240Z,-27.36
2022-12-19T20:13:35.774Z,-27.65
2022-12-19T20:16:40.183Z,-27.46
2022-12-19T20:19:44.531Z,-27.72
2022-12-19T20:22:48.948Z,-27.85
2022-12-19T20:25:53.331Z,-27.71
2022-12-19T20:28:57.368Z,-27.86
2022-12-19T20:32:02.072Z,-28.02
2022-12-19T20:35:12.361Z,-27.88
2022-12-19T20:38:18.936Z,-28.37
2022-12-19T20:41:23.752Z,-28.31
2022-12-19T20:44:28.260Z,-28.14
2022-12-19T20:47:32.759Z,-28.18
2022-12-19T20:50:42.708Z,-27.80
2022-12-19T20:53:48.610Z,-27.81
2022-12-19T20:56:53.211Z,-27.92
2022-12-19T20:59:58.012Z,-28.10
2022-12-19T21:03:28.036Z,-28.22
2022-12-19T21:06:28.258Z,-28.18
2022-12-19T21:09:32.686Z,-28.26
2022-12-19T21:12:37.395Z,-28.21
2022-12-19T21:15:44.583Z,-28.13
2022-12-19T21:18:49.844Z,-28.20
2022-12-19T21:21:54.236Z,-28.05
2022-12-19T21:24:58.290Z,-27.96
2022-12-19T21:28:02.666Z,-28.04
2022-12-19T21:31:19.746Z,-28.29
2022-12-19T21:34:24.552Z,-28.72
2022-12-19T21:37:29.065Z,-28.44
2022-12-19T21:40:32.862Z,-28.14
2022-12-19T21:43:38.223Z,-28.40
2022-12-19T21:46:42.660Z,-28.76
2022-12-19T21:49:46.500Z,-28.64
2022-12-19T21:52:55.740Z,-28.86
2022-12-19T21:56:05.526Z,-28.95
2022-12-19T21:59:15.775Z,-28.85
2022-12-19T22:02:20.285Z,-28.94
2022-12-19T22:05:24.898Z,-28.88
2022-12-19T22:08:29.745Z,-29.11
2022-12-19T22:11:34.287Z,-29.32
2022-12-19T22:14:38.684Z,-28.84
2022-12-19T22:17:44.609Z,-29.24
2022-12-19T22:20:49.141Z,-28.92
2022-12-19T22:23:54.093Z,-28.92
2022-12-19T22:27:01.701Z,-28.77
2022-12-19T22:30:10.872Z,-28.59
2022-12-19T22:33:15.909Z,-28.52
2022-12-19T22:36:27.626Z,-28.91
2022-12-19T22:39:33.184Z,-28.49
2022-12-19T22:42:37.823Z,-29.02
2022-12-19T22:45:42.869Z,-29.09
2022-12-19T22:48:48.894Z,-29.61
2022-12-19T22:51:53.464Z,-29.68
2022-12-19T22:54:58.064Z,-29.64
2022-12-19T22:58:02.540Z,-29.11
2022-12-19T23:01:17.425Z,-28.92
2022-12-19T23:04:22.193Z,-28.76
2022-12-19T23:07:26.971Z,-28.73
2022-12-19T23:10:31.779Z,-28.24
2022-12-19T23:13:36.830Z,-28.45
2022-12-19T23:16:41.886Z,-28.76
2022-12-19T23:19:46.493Z,-28.80
2022-12-19T23:22:50.826Z,-28.71
2022-12-19T23:25:55.868Z,-28.65
2022-12-19T23:29:11.919Z,-28.33
2022-12-19T23:32:16.333Z,-28.21
2022-12-19T23:35:20.632Z,-28.27
2022-12-19T23:38:24.835Z,-28.04
2022-12-19T23:41:29.420Z,-27.74
2022-12-19T23:44:34.095Z,-26.59
2022-12-19T23:47:38.943Z,-25.75
2022-12-19T23:50:43.701Z,-25.35
2022-12-19T23:53:48.787Z,-25.48
2022-12-19T23:56:54.364Z,-25.37
2022-12-19T23:59:58.879Z,-24.95
